Time;durP1;ratioP1;P1;durP2;ratioP2;P2;SDS_P1;SDS_P2;PMS_P1;PMS_P2;Temp;Humidity;BMP_temperature;BMP_pressure;BME280_temperature;BME280_humidity;BME280_pressure;Samples;Min_cycle;Max_cycle;Signal;HPM_P1;HPM_P2
2022/01/15 00:01:33;;;;;;;12.47;9.83;;;;;;;3.56;68.53;96863.81;5034787;28;20230;-83
2022/01/15 00:04:00;;;;;;;12.43;9.53;;;;;;;3.50;68.73;96865.00;5034521;28;20198;-83
2022/01/15 00:06:26;;;;;;;13.00;10.10;;;;;;;3.51;68.33;96870.91;5035232;28;20731;-83
2022/01/15 00:08:53;;;;;;;12.80;9.77;;;;;;;3.58;67.93;96864.53;5035073;28;20195;-83
2022/01/15 00:11:21;;;;;;;13.33;10.37;;;;;;;3.60;68.24;96867.78;5034525;28;20230;-84
2022/01/15 00:13:54;;;;;;;12.47;9.80;;;;;;;3.60;67.94;96872.88;5034616;28;20202;-83
2022/01/15 00:16:30;;;;;;;11.30;9.20;;;;;;;3.47;68.30;96870.31;5035119;28;20218;-83
2022/01/15 00:19:05;;;;;;;12.77;9.33;;;;;;;3.40;68.50;96866.56;5035549;28;20229;-83
2022/01/15 00:21:32;;;;;;;12.83;9.87;;;;;;;3.37;68.90;96854.84;5035108;28;20565;-83
2022/01/15 00:23:58;;;;;;;11.90;9.33;;;;;;;3.38;68.90;96868.38;5035648;28;20202;-83
2022/01/15 00:26:26;;;;;;;11.83;10.07;;;;;;;3.32;69.09;96869.59;5034948;28;20222;-83
2022/01/15 00:28:53;;;;;;;12.27;8.90;;;;;;;3.27;69.17;96853.00;5035331;28;20205;-83
2022/01/15 00:31:20;;;;;;;12.30;9.37;;;;;;;3.29;69.35;96854.50;5034353;28;20731;-83
2022/01/15 00:33:46;;;;;;;11.27;8.90;;;;;;;3.37;68.93;96859.09;5034736;28;20209;-85
2022/01/15 00:36:13;;;;;;;12.00;9.07;;;;;;;3.35;69.17;96869.38;5034824;28;20596;-80
2022/01/15 00:38:39;;;;;;;13.50;9.77;;;;;;;3.38;68.60;96870.94;5035045;28;20237;-84
2022/01/15 00:41:06;;;;;;;14.60;9.80;;;;;;;3.42;68.37;96854.53;5033936;28;20230;-84
2022/01/15 00:43:33;;;;;;;11.90;9.63;;;;;;;3.38;68.22;96855.66;5034307;28;20281;-83
2022/01/15 00:46:00;;;;;;;11.93;9.20;;;;;;;3.36;68.17;96850.66;5034236;28;20237;-83
2022/01/15 00:48:27;;;;;;;13.30;10.00;;;;;;;3.30;68.22;96861.22;5034216;28;20198;-84
2022/01/15 00:50:54;;;;;;;12.77;9.70;;;;;;;3.30;68.43;96853.59;5034429;28;20225;-83
2022/01/15 00:53:21;;;;;;;12.53;9.73;;;;;;;3.23;68.15;96851.56;5034594;28;20202;-84
2022/01/15 00:55:47;;;;;;;12.07;9.27;;;;;;;3.22;68.34;96848.22;5034207;28;20199;-84
2022/01/15 00:58:14;;;;;;;12.83;9.87;;;;;;;3.23;68.77;96841.38;5033885;28;20194;-84
2022/01/15 01:00:43;;;;;;;12.13;9.37;;;;;;;3.22;68.43;96847.38;5033949;28;20238;-83
2022/01/15 01:03:09;;;;;;;13.77;9.50;;;;;;;3.25;68.68;96848.00;5033562;28;20666;-84
2022/01/15 01:05:36;;;;;;;12.23;9.93;;;;;;;3.19;68.59;96856.03;5034403;28;20233;-84
2022/01/15 01:08:02;;;;;;;12.00;9.77;;;;;;;3.03;68.62;96858.75;5034204;28;20218;-83
2022/01/15 01:10:51;;;;;;;12.33;9.23;;;;;;;3.09;68.57;96849.91;5033906;28;20639;-82
2022/01/15 01:13:40;;;;;;;11.40;9.23;;;;;;;3.07;68.82;96850.03;5034114;28;20194;-84
2022/01/15 01:24:28;;;;;;;11.50;9.00;;;;;;;2.99;68.73;96848.88;5033704;28;20201;-83
2022/01/15 01:26:59;;;;;;;10.87;9.33;;;;;;;2.99;68.78;96842.06;5034357;28;20232;-83
2022/01/15 01:29:35;;;;;;;11.47;9.40;;;;;;;2.89;68.68;96847.81;5033272;28;20217;-84
2022/01/15 01:32:08;;;;;;;11.20;9.07;;;;;;;2.79;68.97;96850.16;5033889;28;20201;-81
2022/01/15 01:34:38;;;;;;;12.83;8.57;;;;;;;2.82;68.90;96851.69;5033401;28;20194;-83
2022/01/15 01:37:11;;;;;;;9.90;8.63;;;;;;;2.71;69.19;96842.19;5033430;28;20214;-83
2022/01/15 01:39:44;;;;;;;11.87;9.20;;;;;;;2.72;69.10;96833.63;5032761;28;20280;-85
2022/01/15 01:42:28;;;;;;;10.37;9.00;;;;;;;2.69;69.28;96842.28;5033166;28;20248;-81
2022/01/15 01:44:59;;;;;;;11.43;8.87;;;;;;;2.75;69.22;96828.38;5014010;28;20964;-83
2022/01/15 01:47:39;;;;;;;10.83;8.90;;;;;;;2.80;69.07;96828.09;5027546;28;20229;-81
2022/01/15 01:50:10;;;;;;;10.00;8.10;;;;;;;2.80;68.72;96826.34;5033143;28;20225;-83
2022/01/15 01:52:37;;;;;;;11.33;8.57;;;;;;;2.79;68.57;96822.19;5033315;28;20297;-84
2022/01/15 01:55:04;;;;;;;10.23;8.77;;;;;;;2.77;68.43;96822.28;5033708;28;20202;-83
2022/01/15 01:57:31;;;;;;;12.33;8.27;;;;;;;2.80;68.84;96820.44;5033980;28;20613;-83
2022/01/15 01:59:57;;;;;;;9.87;8.33;;;;;;;2.75;68.33;96810.56;5032788;28;20222;-83
2022/01/15 02:02:23;;;;;;;10.50;8.13;;;;;;;2.68;68.93;96810.16;5032864;28;20201;-84
2022/01/15 02:04:51;;;;;;;9.83;8.00;;;;;;;2.70;68.61;96810.84;5033449;28;20581;-83
2022/01/15 02:07:18;;;;;;;9.40;8.17;;;;;;;2.65;69.00;96807.81;5034178;28;20705;-83
2022/01/15 02:09:44;;;;;;;9.40;7.73;;;;;;;2.62;68.67;96804.63;5030765;28;20229;-84
2022/01/15 02:12:11;;;;;;;9.53;8.13;;;;;;;2.58;68.74;96803.19;5034241;28;20202;-83
2022/01/15 02:14:37;;;;;;;9.97;7.70;;;;;;;2.48;69.42;96790.28;5019574;28;20194;-83
2022/01/15 02:17:04;;;;;;;9.93;7.80;;;;;;;2.52;69.43;96795.94;5035282;28;20222;-84
2022/01/15 02:19:33;;;;;;;9.13;7.43;;;;;;;2.58;69.26;96795.56;5033785;28;20871;-83
2022/01/15 02:24:43;;;;;;;11.13;7.90;;;;;;;2.53;68.88;96787.41;5023698;28;20248;-81
2022/01/15 02:27:09;;;;;;;11.00;7.47;;;;;;;2.53;68.97;96792.50;5034454;28;20222;-81
2022/01/15 02:29:36;;;;;;;8.60;7.40;;;;;;;2.52;69.15;96785.78;5034597;28;20225;-84
2022/01/15 02:32:03;;;;;;;9.57;7.53;;;;;;;2.54;69.00;96787.31;5034308;28;20752;-83
2022/01/15 02:34:29;;;;;;;9.70;7.43;;;;;;;2.53;68.62;96780.59;5033651;28;20221;-84
2022/01/15 02:36:57;;;;;;;9.77;7.80;;;;;;;2.42;68.68;96778.75;5034599;28;20218;-83
2022/01/15 02:39:23;;;;;;;8.67;7.53;;;;;;;2.41;68.97;96776.31;5034103;28;20603;-84
2022/01/15 02:41:50;;;;;;;9.13;7.50;;;;;;;2.43;68.82;96769.41;5034299;28;20209;-83
2022/01/15 02:44:19;;;;;;;9.83;7.57;;;;;;;2.38;69.25;96763.78;5034592;28;20198;-83
2022/01/15 02:49:29;;;;;;;8.00;6.47;;;;;;;2.42;68.92;96771.13;5033831;28;20225;-84
2022/01/15 02:51:57;;;;;;;11.10;7.80;;;;;;;2.40;68.77;96767.06;5033964;28;20221;-83
2022/01/15 02:54:24;;;;;;;10.20;8.00;;;;;;;2.36;68.59;96768.97;5034240;28;20206;-83
2022/01/15 02:56:50;;;;;;;10.67;7.70;;;;;;;2.33;68.65;96763.25;5033575;28;20218;-83
2022/01/15 02:59:20;;;;;;;11.43;7.80;;;;;;;2.28;68.62;96758.50;5032945;28;20220;-83
2022/01/15 03:01:48;;;;;;;7.83;6.87;;;;;;;2.27;68.63;96756.88;5033120;28;20198;-83
2022/01/15 03:04:15;;;;;;;9.93;7.93;;;;;;;2.23;69.08;96752.88;5034121;28;20206;-83
2022/01/15 03:06:41;;;;;;;9.33;7.80;;;;;;;2.22;68.85;96746.16;5033511;28;20248;-84
2022/01/15 03:09:09;;;;;;;9.33;6.93;;;;;;;2.25;68.88;96743.44;5033349;28;20210;-83
2022/01/15 03:11:35;;;;;;;9.67;7.37;;;;;;;2.33;68.43;96750.56;5033917;28;20268;-83
2022/01/15 03:14:02;;;;;;;10.53;7.83;;;;;;;2.30;68.62;96743.97;5033885;28;20209;-84
2022/01/15 03:16:29;;;;;;;9.30;7.13;;;;;;;2.34;68.30;96734.41;5033546;28;20214;-83
2022/01/15 03:18:55;;;;;;;8.17;6.90;;;;;;;2.30;68.56;96723.63;5033713;28;20197;-83
2022/01/15 03:21:22;;;;;;;8.80;7.07;;;;;;;2.30;68.20;96722.81;5050256;28;20225;-82
2022/01/15 03:23:49;;;;;;;9.40;7.07;;;;;;;2.32;68.30;96726.06;5053351;28;20251;-83
2022/01/15 03:26:17;;;;;;;9.60;7.53;;;;;;;2.34;68.25;96724.22;5054833;28;20225;-83
2022/01/15 03:28:44;;;;;;;7.20;6.50;;;;;;;2.35;68.21;96729.22;5040122;28;20201;-83
2022/01/15 03:31:11;;;;;;;9.23;6.63;;;;;;;2.29;68.28;96718.66;5036490;28;20245;-83
2022/01/15 03:33:37;;;;;;;8.50;6.70;;;;;;;2.30;68.15;96722.81;5037614;28;20205;-83
2022/01/15 03:36:04;;;;;;;8.47;6.47;;;;;;;2.32;67.91;96719.25;5037297;28;20236;-83
2022/01/15 03:38:31;;;;;;;8.23;6.90;;;;;;;2.33;68.03;96722.59;5036922;28;20870;-83
2022/01/15 03:40:57;;;;;;;9.23;7.03;;;;;;;2.30;67.59;96713.47;5036305;28;20233;-83
2022/01/15 03:43:25;;;;;;;11.60;6.80;;;;;;;2.22;67.69;96718.22;5036424;28;20194;-83
2022/01/15 03:45:51;;;;;;;8.30;6.97;;;;;;;2.23;67.98;96721.56;5036526;28;20209;-83
2022/01/15 03:48:18;;;;;;;7.83;6.53;;;;;;;2.15;67.64;96726.31;5036608;28;20218;-83
2022/01/15 03:50:44;;;;;;;10.60;7.20;;;;;;;2.07;68.09;96720.00;5036012;28;20233;-84
2022/01/15 03:53:11;;;;;;;7.93;6.63;;;;;;;2.07;68.31;96721.72;5036029;28;20256;-83
2022/01/15 03:55:40;;;;;;;9.50;6.63;;;;;;;2.07;68.51;96712.38;5036024;28;20202;-83
2022/01/15 03:58:07;;;;;;;8.13;6.93;;;;;;;2.04;68.66;96715.13;5036105;28;20218;-83
2022/01/15 04:00:35;;;;;;;8.53;6.33;;;;;;;2.03;68.56;96717.75;5035331;28;20241;-82
2022/01/15 04:03:03;;;;;;;9.60;6.50;;;;;;;2.03;68.46;96712.66;5036012;28;20198;-84
2022/01/15 04:05:29;;;;;;;8.57;6.00;;;;;;;1.95;68.19;96707.25;5036278;28;20240;-81
2022/01/15 04:07:56;;;;;;;8.67;6.30;;;;;;;1.96;68.41;96708.88;5035465;28;20226;-82
2022/01/15 04:10:22;;;;;;;8.20;6.50;;;;;;;2.04;68.30;96714.28;5035081;28;20230;-81
2022/01/15 04:12:49;;;;;;;8.67;6.90;;;;;;;2.03;68.12;96717.75;5035574;28;20198;-84
2022/01/15 04:15:17;;;;;;;8.00;6.70;;;;;;;2.06;68.17;96713.28;5036363;28;20252;-83
2022/01/15 04:17:46;;;;;;;7.60;6.57;;;;;;;2.10;67.82;96715.66;5036363;28;20645;-83
2022/01/15 04:20:16;;;;;;;7.53;6.37;;;;;;;2.11;67.90;96714.75;5034835;28;20720;-83
2022/01/15 04:22:42;;;;;;;7.40;6.10;;;;;;;2.08;67.57;96719.09;5035312;28;20198;-83
2022/01/15 04:25:10;;;;;;;6.67;5.97;;;;;;;2.04;68.04;96719.38;5035883;28;20244;-83
2022/01/15 04:27:37;;;;;;;7.47;6.27;;;;;;;1.98;67.96;96718.03;5035640;28;20275;-84
2022/01/15 04:30:05;;;;;;;7.80;6.43;;;;;;;1.94;67.69;96720.84;5035368;28;20233;-83
2022/01/15 04:32:32;;;;;;;8.00;6.20;;;;;;;1.83;68.01;96718.16;5035681;28;20194;-83
2022/01/15 04:35:00;;;;;;;8.43;6.80;;;;;;;1.86;67.87;96718.00;5035855;28;20255;-83
2022/01/15 04:37:35;;;;;;;8.73;6.87;;;;;;;1.78;68.26;96717.63;5034465;28;20713;-83
2022/01/15 04:40:02;;;;;;;8.27;6.57;;;;;;;1.80;67.98;96721.72;5035197;28;20237;-84
2022/01/15 04:42:29;;;;;;;8.23;6.10;;;;;;;1.81;67.85;96722.53;5034155;28;20216;-83
2022/01/15 04:44:56;;;;;;;8.60;6.40;;;;;;;1.81;67.88;96717.44;5032133;28;20194;-83
2022/01/15 04:47:22;;;;;;;7.27;6.20;;;;;;;1.81;67.98;96715.72;5032772;28;20225;-83
2022/01/15 04:49:49;;;;;;;8.43;6.37;;;;;;;1.91;67.97;96718.53;5034998;28;20229;-83
2022/01/15 04:52:17;;;;;;;9.03;6.70;;;;;;;1.96;67.60;96711.41;5034935;28;20198;-83
2022/01/15 04:54:43;;;;;;;7.73;6.27;;;;;;;1.98;67.24;96710.41;5035530;28;20198;-84
2022/01/15 04:57:09;;;;;;;7.73;6.67;;;;;;;1.98;67.43;96712.13;5035493;28;20224;-84
2022/01/15 04:59:36;;;;;;;8.20;5.90;;;;;;;2.00;67.83;96710.31;5035396;28;20249;-83
2022/01/15 05:02:03;;;;;;;9.20;6.93;;;;;;;1.97;67.80;96713.03;5035134;28;20205;-83
2022/01/15 05:04:29;;;;;;;7.77;6.53;;;;;;;1.90;67.75;96707.56;5035481;28;20194;-83
2022/01/15 05:06:56;;;;;;;6.63;5.90;;;;;;;1.88;67.94;96711.91;5034971;28;20226;-83
2022/01/15 05:09:23;;;;;;;8.93;6.50;;;;;;;1.88;67.66;96709.38;5034679;28;20202;-83
2022/01/15 05:12:00;;;;;;;8.20;6.50;;;;;;;1.88;67.80;96717.00;5034331;28;20198;-83
2022/01/15 05:14:26;;;;;;;7.73;6.13;;;;;;;1.92;67.89;96710.81;5035217;28;20206;-84
2022/01/15 05:16:53;;;;;;;7.20;6.10;;;;;;;1.95;67.71;96718.22;5034747;28;20210;-84
2022/01/15 05:19:19;;;;;;;7.97;6.53;;;;;;;1.94;67.40;96714.03;5034561;28;20198;-83
2022/01/15 05:21:46;;;;;;;7.57;6.70;;;;;;;1.96;67.53;96716.50;5033715;28;20255;-83
2022/01/15 05:24:12;;;;;;;10.03;6.80;;;;;;;1.94;67.28;96720.84;5033753;28;20237;-80
2022/01/15 05:26:40;;;;;;;6.43;5.73;;;;;;;1.96;67.33;96722.38;5033859;28;20225;-83
2022/01/15 05:29:06;;;;;;;7.67;6.10;;;;;;;1.97;67.15;96718.13;5034442;28;20213;-83
2022/01/15 05:31:33;;;;;;;7.33;6.30;;;;;;;1.88;67.14;96718.72;5033767;28;20233;-83
2022/01/15 05:34:00;;;;;;;8.83;6.60;;;;;;;1.86;67.68;96711.19;5033433;28;20202;-82
2022/01/15 05:36:27;;;;;;;7.90;6.40;;;;;;;1.85;67.67;96716.34;5034023;28;20222;-83
2022/01/15 05:38:53;;;;;;;8.23;6.67;;;;;;;1.81;67.46;96709.84;5034391;28;20202;-84
2022/01/15 05:41:20;;;;;;;7.90;6.13;;;;;;;1.80;67.90;96713.28;5033320;28;20295;-84
2022/01/15 05:43:47;;;;;;;6.90;6.20;;;;;;;1.75;67.60;96711.00;5033361;28;20198;-84
2022/01/15 05:46:14;;;;;;;8.43;6.63;;;;;;;1.80;67.91;96713.28;5033662;28;20230;-84
2022/01/15 05:48:40;;;;;;;8.83;7.13;;;;;;;1.83;67.82;96715.63;5032496;28;20218;-83
2022/01/15 05:51:07;;;;;;;9.67;6.83;;;;;;;1.81;67.44;96718.25;5033087;28;20244;-83
2022/01/15 05:53:33;;;;;;;9.77;6.73;;;;;;;1.77;67.63;96721.91;5033601;28;20206;-83
2022/01/15 05:56:00;;;;;;;8.77;7.20;;;;;;;1.62;68.06;96717.75;5033139;28;20203;-83
2022/01/15 05:58:26;;;;;;;8.43;7.10;;;;;;;1.60;68.08;96714.50;5033533;28;20190;-83
2022/01/15 06:00:54;;;;;;;8.53;6.53;;;;;;;1.63;68.11;96729.56;5032378;28;20234;-83
2022/01/15 06:03:20;;;;;;;8.53;7.20;;;;;;;1.63;67.98;96721.94;5033288;28;20807;-84
2022/01/15 06:05:47;;;;;;;8.87;7.60;;;;;;;1.60;68.07;96725.47;5032865;28;20198;-83
2022/01/15 06:08:13;;;;;;;10.17;7.00;;;;;;;1.48;69.04;96727.94;5033148;28;20225;-84
2022/01/15 06:10:40;;;;;;;10.10;7.47;;;;;;;1.52;68.98;96729.41;5032820;28;20604;-82
2022/01/15 06:13:07;;;;;;;9.30;7.40;;;;;;;1.49;68.65;96734.66;5033026;28;20208;-83
2022/01/15 06:15:33;;;;;;;9.60;7.73;;;;;;;1.35;68.93;96731.19;5032510;28;20202;-83
2022/01/15 06:18:01;;;;;;;9.63;8.13;;;;;;;1.37;69.37;96728.56;5044698;28;20243;-83
2022/01/15 06:20:28;;;;;;;10.30;7.60;;;;;;;1.33;69.56;96727.16;5033268;28;20222;-83
2022/01/15 06:22:54;;;;;;;9.43;8.00;;;;;;;1.25;69.70;96729.31;5033447;28;20213;-83
2022/01/15 06:25:20;;;;;;;11.90;8.63;;;;;;;1.21;70.79;96735.47;5034740;28;20222;-84
2022/01/15 06:27:47;;;;;;;10.07;7.97;;;;;;;1.17;70.92;96726.41;5046217;28;20226;-83
2022/01/15 06:30:13;;;;;;;10.60;9.03;;;;;;;1.30;70.71;96727.34;5032515;28;20234;-85
2022/01/15 06:32:40;;;;;;;11.03;9.03;;;;;;;1.39;70.24;96734.38;5033117;28;20190;-85
2022/01/15 06:35:11;;;;;;;13.07;9.13;;;;;;;1.35;70.24;96722.78;5033268;28;20198;-84
2022/01/15 06:37:38;;;;;;;12.67;10.30;;;;;;;1.32;71.13;96730.59;5033185;28;20210;-84
2022/01/15 06:40:07;;;;;;;12.97;10.47;;;;;;;1.31;70.64;96731.50;5032227;28;20713;-83
2022/01/15 06:42:34;;;;;;;12.20;10.10;;;;;;;1.27;70.93;96738.47;5030891;28;20209;-83
2022/01/15 06:45:00;;;;;;;15.93;10.73;;;;;;;1.26;70.94;96736.84;5030695;28;20202;-83
2022/01/15 06:47:27;;;;;;;14.13;10.50;;;;;;;1.28;71.60;96737.56;5031982;28;20221;-84
2022/01/15 06:49:54;;;;;;;12.97;10.50;;;;;;;1.29;71.29;96743.47;5032284;28;20245;-84
2022/01/15 06:52:24;;;;;;;15.80;10.53;;;;;;;1.28;71.19;96742.66;5031975;28;20583;-83
2022/01/15 06:54:51;;;;;;;13.67;10.83;;;;;;;1.34;70.92;96744.00;5025172;28;20696;-83
2022/01/15 06:57:17;;;;;;;12.77;10.43;;;;;;;1.32;70.91;96745.81;5031785;28;20223;-84
2022/01/15 06:59:44;;;;;;;13.63;10.83;;;;;;;1.38;70.36;96745.44;5011735;28;20226;-83
2022/01/15 07:02:11;;;;;;;14.00;11.07;;;;;;;1.46;70.59;96742.44;5011612;28;20686;-84
2022/01/15 07:04:38;;;;;;;14.13;11.33;;;;;;;1.52;69.98;96740.38;5031009;28;20673;-82
2022/01/15 07:07:04;;;;;;;13.30;11.10;;;;;;;1.52;69.94;96749.69;5030313;28;20233;-82
2022/01/15 07:09:35;;;;;;;12.93;10.97;;;;;;;1.54;69.89;96748.69;5030038;28;20708;-81
2022/01/15 07:12:01;;;;;;;15.07;11.43;;;;;;;1.31;70.69;96739.13;5030667;28;20229;-83
2022/01/15 07:14:28;;;;;;;13.73;10.77;;;;;;;1.28;71.25;96747.72;5031636;28;20198;-81
2022/01/15 07:16:54;;;;;;;13.20;10.77;;;;;;;1.38;71.01;96745.44;5031640;28;20225;-81
2022/01/15 07:19:21;;;;;;;13.27;10.50;;;;;;;1.44;71.56;96756.94;5030920;28;20210;-83
2022/01/15 07:21:47;;;;;;;14.00;10.00;;;;;;;1.54;71.22;96763.13;5030945;28;20906;-83
2022/01/15 07:24:14;;;;;;;13.20;9.90;;;;;;;1.59;71.89;96746.69;5032288;28;20205;-83
2022/01/15 07:26:42;;;;;;;14.97;10.13;;;;;;;1.62;72.09;96748.22;5030959;28;20214;-84
2022/01/15 07:29:14;;;;;;;15.43;10.13;;;;;;;1.70;71.94;96754.47;5032234;28;20601;-83
2022/01/15 07:31:42;;;;;;;18.03;13.70;;;;;;;1.75;73.03;96749.09;5031197;28;20222;-84
2022/01/15 07:34:08;;;;;;;67.47;45.50;;;;;;;1.79;73.21;96749.72;5032404;28;20194;-84
2022/01/15 07:36:35;;;;;;;33.80;20.70;;;;;;;1.68;76.71;96745.31;5037300;28;20217;-84
2022/01/15 07:39:01;;;;;;;16.60;12.23;;;;;;;1.57;77.11;96750.22;5048527;28;20216;-84
2022/01/15 07:41:28;;;;;;;14.50;10.60;;;;;;;1.59;77.96;96754.28;5031108;28;20225;-83
2022/01/15 07:43:55;;;;;;;43.30;11.87;;;;;;;1.60;77.49;96747.50;5031955;28;20209;-83
2022/01/15 07:46:22;;;;;;;18.80;11.47;;;;;;;1.34;81.06;96747.34;5032235;28;20245;-83
2022/01/15 07:48:48;;;;;;;15.07;10.73;;;;;;;1.44;79.66;96745.06;5031455;28;20226;-82
2022/01/15 07:51:15;;;;;;;13.47;10.10;;;;;;;1.52;79.71;96758.13;5031147;28;20233;-82
2022/01/15 07:53:42;;;;;;;24.53;10.63;;;;;;;1.42;79.60;96741.81;5030794;28;20857;-84
2022/01/15 07:56:08;;;;;;;27.27;11.07;;;;;;;1.37;81.88;96744.63;5032276;28;20666;-83
2022/01/15 07:58:35;;;;;;;14.40;10.30;;;;;;;1.49;80.63;96753.22;5031408;28;20190;-82
2022/01/15 08:01:03;;;;;;;12.83;10.30;;;;;;;1.59;80.53;96744.16;5030100;28;20227;-83
2022/01/15 08:03:29;;;;;;;14.83;10.50;;;;;;;1.52;81.36;96752.25;5031134;28;20198;-83
2022/01/15 08:05:56;;;;;;;14.67;10.83;;;;;;;1.49;82.08;96735.47;5030456;28;20198;-81
2022/01/15 08:08:22;;;;;;;16.17;10.43;;;;;;;1.52;83.18;96739.56;5030905;28;20230;-82
2022/01/15 08:10:48;;;;;;;13.40;9.90;;;;;;;1.67;81.39;96739.44;5030093;28;20233;-82
2022/01/15 08:13:16;;;;;;;14.30;10.10;;;;;;;1.78;80.10;96738.75;5033383;28;20205;-81
2022/01/15 08:15:43;;;;;;;23.30;10.13;;;;;;;1.69;81.37;96735.06;5034065;28;20253;-81
2022/01/15 08:18:10;;;;;;;12.20;9.50;;;;;;;1.67;81.67;96736.06;5034399;28;20225;-81
2022/01/15 08:20:37;;;;;;;15.90;9.60;;;;;;;1.65;81.20;96737.88;5034043;28;20669;-82
2022/01/15 08:23:03;;;;;;;13.80;9.77;;;;;;;1.75;81.33;96723.72;5040423;28;20201;-84
2022/01/15 08:25:30;;;;;;;13.03;9.83;;;;;;;1.86;80.09;96728.16;5034428;28;20202;-83
2022/01/15 08:27:57;;;;;;;13.23;9.80;;;;;;;1.72;83.09;96713.78;5029745;28;20620;-84
2022/01/15 08:30:23;;;;;;;14.03;10.93;;;;;;;1.73;83.55;96725.56;5030854;28;20226;-84
2022/01/15 08:32:50;;;;;;;19.00;10.37;;;;;;;1.83;81.78;96718.16;5032300;28;20210;-83
2022/01/15 08:35:20;;;;;;;19.13;9.90;;;;;;;1.87;80.93;96719.63;5033041;28;20205;-83
2022/01/15 08:37:48;;;;;;;12.60;9.10;;;;;;;1.89;81.12;96705.09;5049267;28;20218;-83
2022/01/15 08:40:17;;;;;;;12.23;9.47;;;;;;;2.09;80.41;96704.66;5033336;28;20238;-84
2022/01/15 08:42:44;;;;;;;11.90;9.80;;;;;;;2.21;79.70;96698.00;5032290;28;20213;-83
2022/01/15 08:45:12;;;;;;;12.97;10.10;;;;;;;2.33;79.20;96699.72;5032696;28;20198;-85
2022/01/15 08:47:42;;;;;;;15.43;10.53;;;;;;;2.37;78.44;96691.81;5032700;28;20222;-84
2022/01/15 08:50:10;;;;;;;14.43;11.20;;;;;;;2.37;78.69;96698.63;5033263;28;20697;-82
2022/01/15 08:52:39;;;;;;;13.07;10.70;;;;;;;2.30;79.05;96703.31;5032668;28;20209;-81
2022/01/15 08:55:07;;;;;;;12.77;10.50;;;;;;;2.35;80.67;96697.91;5033094;28;20229;-82
2022/01/15 08:57:34;;;;;;;14.30;10.70;;;;;;;2.41;80.30;96694.97;5032739;28;20222;-78
2022/01/15 09:00:01;;;;;;;13.53;10.73;;;;;;;2.38;80.87;96685.00;5032354;28;20233;-80
2022/01/15 09:02:28;;;;;;;13.67;11.23;;;;;;;2.70;79.01;96690.53;5032809;28;20278;-84
2022/01/15 09:04:54;;;;;;;13.27;10.90;;;;;;;2.87;78.26;96680.09;5033107;28;20209;-83
2022/01/15 09:07:21;;;;;;;13.63;10.60;;;;;;;3.15;77.66;96681.56;5033249;28;20272;-83
2022/01/15 09:09:49;;;;;;;13.20;10.03;;;;;;;3.57;75.53;96677.81;5031715;28;20230;-83
2022/01/15 09:12:17;;;;;;;16.40;13.30;;;;;;;3.78;74.67;96680.59;5033748;28;20209;-83
2022/01/15 09:14:43;;;;;;;36.10;25.50;;;;;;;3.96;73.96;96671.66;5032322;28;20198;-83
2022/01/15 09:17:10;;;;;;;22.10;16.63;;;;;;;4.21;72.77;96675.81;5034234;28;20222;-83
2022/01/15 09:19:37;;;;;;;13.10;11.03;;;;;;;4.23;72.67;96678.28;5032994;28;20225;-83
2022/01/15 09:22:06;;;;;;;12.13;10.53;;;;;;;4.14;70.93;96679.72;5032745;28;20201;-83
2022/01/15 09:24:32;;;;;;;11.80;10.20;;;;;;;4.45;70.51;96679.13;5030962;28;20210;-83
2022/01/15 09:30:11;;;;;;;11.83;9.70;;;;;;;4.58;70.81;96676.50;5033904;28;20233;-83
2022/01/15 09:32:32;;;;;;;11.00;9.90;;;;;;;5.04;69.31;96675.63;5032797;28;20561;-83
2022/01/15 09:34:58;;;;;;;11.50;10.17;;;;;;;5.41;68.21;96677.00;5034521;28;20198;-84
2022/01/15 09:37:24;;;;;;;12.70;9.70;;;;;;;5.68;67.85;96660.50;5045118;28;20222;-84
2022/01/15 09:39:51;;;;;;;14.50;10.40;;;;;;;5.87;66.74;96665.78;5032537;28;20230;-84
2022/01/15 09:42:22;;;;;;;12.33;10.17;;;;;;;5.79;65.76;96658.72;5032675;28;20213;-84
2022/01/15 09:44:49;;;;;;;12.87;10.47;;;;;;;5.74;66.94;96655.72;5032440;28;20198;-83
2022/01/15 09:47:16;;;;;;;11.43;9.47;;;;;;;6.04;66.45;96657.63;5033606;28;20620;-84
2022/01/15 09:49:45;;;;;;;12.27;10.70;;;;;;;6.15;65.53;96654.22;5032252;28;20574;-83
2022/01/15 09:52:12;;;;;;;10.57;9.50;;;;;;;6.32;65.23;96655.44;5032101;28;20228;-84
2022/01/15 09:54:40;;;;;;;11.27;10.13;;;;;;;6.61;64.18;96655.59;5033044;28;20445;-83
2022/01/15 09:57:06;;;;;;;11.60;10.40;;;;;;;6.32;62.16;96651.13;5032824;28;20959;-85
2022/01/15 09:59:36;;;;;;;11.43;9.53;;;;;;;6.47;63.26;96656.72;5033222;28;20229;-83
2022/01/15 10:02:04;;;;;;;11.20;9.87;;;;;;;6.56;61.69;96651.66;5033008;28;20581;-83
2022/01/15 10:04:32;;;;;;;11.17;10.07;;;;;;;6.79;62.47;96647.22;5033751;28;20198;-84
2022/01/15 10:07:13;;;;;;;11.47;10.37;;;;;;;6.93;61.99;96651.19;5033635;28;20675;-84
2022/01/15 10:09:41;;;;;;;11.73;10.53;;;;;;;7.01;61.90;96651.38;5032305;28;20234;-83
2022/01/15 10:12:09;;;;;;;11.40;10.27;;;;;;;7.01;61.22;96659.06;5032613;28;20190;-83
2022/01/15 10:14:39;;;;;;;11.90;10.57;;;;;;;7.06;60.61;96653.56;5033295;28;20217;-84
2022/01/15 10:17:22;;;;;;;11.60;10.50;;;;;;;7.03;60.91;96646.94;5033179;28;20262;-84
2022/01/15 10:19:50;;;;;;;11.23;10.13;;;;;;;6.64;60.58;96645.94;5033031;28;20248;-84
2022/01/15 10:22:19;;;;;;;11.17;10.07;;;;;;;6.36;61.44;96647.34;5032337;28;20198;-85
2022/01/15 10:24:52;;;;;;;10.90;9.80;;;;;;;6.01;62.43;96641.72;5032988;28;20720;-86
2022/01/15 10:27:28;;;;;;;12.53;11.23;;;;;;;5.69;63.04;96639.94;5033948;28;20226;-84
2022/01/15 10:30:00;;;;;;;13.40;11.97;;;;;;;5.49;63.75;96641.50;5031633;28;20233;-84
2022/01/15 10:32:28;;;;;;;15.13;13.60;;;;;;;4.82;65.00;96649.16;5032784;28;20198;-83
2022/01/15 10:34:55;;;;;;;14.43;12.63;;;;;;;4.15;68.34;96643.13;5032516;28;20256;-83
2022/01/15 10:37:24;;;;;;;18.23;13.00;;;;;;;3.91;70.07;96642.34;5040005;28;20206;-84
2022/01/15 10:39:57;;;;;;;16.37;14.67;;;;;;;4.05;69.99;96631.97;5032076;28;20228;-83
2022/01/15 10:42:24;;;;;;;16.93;14.60;;;;;;;3.69;70.73;96628.56;5026400;28;20288;-84
2022/01/15 10:44:52;;;;;;;16.17;14.43;;;;;;;3.33;72.65;96631.16;5031119;28;20253;-83
2022/01/15 10:47:22;;;;;;;19.73;15.63;;;;;;;3.43;72.87;96629.59;5030683;28;20222;-83
2022/01/15 10:49:51;;;;;;;16.80;14.63;;;;;;;3.65;72.49;96628.91;5030653;28;20241;-84
2022/01/15 10:52:19;;;;;;;15.90;14.20;;;;;;;3.71;72.00;96620.81;5030531;28;20323;-83
2022/01/15 10:55:01;;;;;;;17.30;13.43;;;;;;;3.86;71.82;96624.00;5031539;28;20213;-83
2022/01/15 10:57:31;;;;;;;18.77;15.00;;;;;;;3.91;71.41;96624.50;5031575;28;20565;-83
2022/01/15 11:00:26;;;;;;;19.83;15.10;;;;;;;3.93;71.51;96620.91;5030605;28;20232;-83
2022/01/15 11:02:57;;;;;;;17.63;14.67;;;;;;;3.85;71.34;96623.19;4995533;28;20206;-83
2022/01/15 11:05:26;;;;;;;20.10;15.60;;;;;;;3.37;74.02;96625.75;5030942;28;20201;-83
2022/01/15 11:07:55;;;;;;;18.53;15.10;;;;;;;3.45;73.46;96623.50;5031708;28;20210;-84
2022/01/15 11:10:21;;;;;;;18.57;14.43;;;;;;;3.46;73.79;96619.22;5030269;28;20713;-83
2022/01/15 11:12:48;;;;;;;17.00;12.83;;;;;;;3.56;73.72;96614.28;5031329;28;20194;-84
2022/01/15 11:15:15;;;;;;;18.13;12.80;;;;;;;3.45;74.18;96607.41;5032205;28;20205;-84
2022/01/15 11:17:42;;;;;;;20.17;13.23;;;;;;;3.44;74.41;96608.31;5033224;28;20214;-84
2022/01/15 11:20:16;;;;;;;16.50;12.57;;;;;;;3.42;74.85;96608.44;5034898;28;20229;-83
2022/01/15 11:22:43;;;;;;;20.47;13.03;;;;;;;3.25;75.70;96600.34;5032906;28;20201;-83
2022/01/15 11:25:14;;;;;;;17.50;13.00;;;;;;;2.95;77.69;96600.69;5034002;28;20248;-83
2022/01/15 11:27:43;;;;;;;32.97;23.93;;;;;;;2.90;79.15;96598.47;5032870;28;20251;-84
2022/01/15 11:30:12;;;;;;;29.80;21.57;;;;;;;2.86;79.45;96589.44;5031894;28;20244;-84
2022/01/15 11:32:43;;;;;;;22.83;16.63;;;;;;;3.05;78.40;96586.44;5032065;28;20233;-83
2022/01/15 11:35:13;;;;;;;19.13;13.33;;;;;;;3.25;78.14;96590.97;5032141;28;20210;-83
2022/01/15 11:37:49;;;;;;;20.33;13.47;;;;;;;3.41;77.56;96594.06;5046039;28;20723;-83
2022/01/15 11:40:38;;;;;;;19.67;13.50;;;;;;;3.45;77.59;96585.31;5041683;28;20237;-83
2022/01/15 11:43:38;;;;;;;18.30;13.53;;;;;;;3.58;77.16;96579.34;5032216;28;20186;-83
2022/01/15 11:46:06;;;;;;;22.20;15.40;;;;;;;3.64;76.68;96576.38;5015317;28;20205;-83
2022/01/15 11:48:35;;;;;;;23.73;16.50;;;;;;;3.68;76.97;96575.19;5036330;28;20198;-83
2022/01/15 11:51:28;;;;;;;22.87;13.93;;;;;;;3.49;78.47;96573.16;5035311;28;20229;-84
2022/01/15 11:54:00;;;;;;;20.67;13.93;;;;;;;3.28;80.05;96572.09;5035634;28;20202;-83